Time;durP1;ratioP1;P1;durP2;ratioP2;P2;SDS_P1;SDS_P2;PMS_P1;PMS_P2;Temp;Humidity;BMP_temperature;BMP_pressure;BME280_temperature;BME280_humidity;BME280_pressure;Samples;Min_cycle;Max_cycle;Signal;HPM_P1;HPM_P2
2022/09/27 00:01:18;;;;;;;6.65;4.57;;;;;;;14.39;100.00;93726.59;5133318;27;20204;-76
2022/09/27 00:03:45;;;;;;;7.10;4.35;;;;;;;14.40;100.00;93733.63;5133165;27;20209;-75
2022/09/27 00:06:14;;;;;;;9.77;5.40;;;;;;;14.31;100.00;93730.41;5133192;27;20208;-74
2022/09/27 00:08:42;;;;;;;4.55;3.65;;;;;;;14.25;100.00;93727.22;5132192;27;20205;-74
2022/09/27 00:11:16;;;;;;;6.32;3.97;;;;;;;14.23;100.00;93724.84;5131318;27;20204;-75
2022/09/27 00:13:43;;;;;;;5.15;3.30;;;;;;;14.15;100.00;93723.22;5132358;27;20227;-75
2022/09/27 00:16:10;;;;;;;7.82;4.45;;;;;;;14.15;100.00;93734.13;5132002;27;20560;-75
2022/09/27 00:18:39;;;;;;;6.65;4.13;;;;;;;14.18;100.00;93738.84;5133223;27;20266;-75
2022/09/27 00:21:07;;;;;;;5.40;3.63;;;;;;;14.15;100.00;93745.00;5132212;27;20261;-74
2022/09/27 00:23:35;;;;;;;5.03;4.00;;;;;;;14.14;100.00;93735.28;5132505;27;20229;-75
2022/09/27 00:26:01;;;;;;;6.90;3.30;;;;;;;14.14;100.00;93740.72;5132489;27;20250;-75
2022/09/27 00:28:29;;;;;;;3.72;2.70;;;;;;;14.06;100.00;93738.28;5132347;27;20201;-76
2022/09/27 00:30:58;;;;;;;6.15;4.00;;;;;;;14.01;100.00;93744.84;5132149;27;20745;-75
2022/09/27 00:33:25;;;;;;;7.60;4.72;;;;;;;14.00;100.00;93742.50;5132340;27;20197;-75
2022/09/27 00:35:53;;;;;;;7.70;3.47;;;;;;;13.95;100.00;93746.31;5132209;27;20201;-78
2022/09/27 00:38:20;;;;;;;7.28;4.78;;;;;;;13.96;100.00;93731.53;5132277;27;20228;-75
2022/09/27 00:40:48;;;;;;;5.05;3.60;;;;;;;13.93;100.00;93726.06;5131878;27;20209;-76
2022/09/27 00:43:19;;;;;;;5.82;4.03;;;;;;;13.97;100.00;93726.88;5132513;27;20205;-75
2022/09/27 00:45:50;;;;;;;5.53;4.38;;;;;;;14.08;100.00;93731.28;5131956;27;20232;-75
2022/09/27 00:48:20;;;;;;;5.40;3.80;;;;;;;14.13;100.00;93730.97;5132353;27;20599;-76
2022/09/27 00:50:52;;;;;;;6.22;3.90;;;;;;;14.05;100.00;93728.56;5091386;28;20206;-76
2022/09/27 00:53:25;;;;;;;8.57;4.18;;;;;;;13.94;100.00;93728.41;5091366;28;20199;-76
2022/09/27 00:55:57;;;;;;;7.72;4.07;;;;;;;14.02;100.00;93732.00;5090896;28;20202;-77
2022/09/27 00:58:28;;;;;;;6.88;4.35;;;;;;;14.07;100.00;93729.75;5090902;28;20322;-77
2022/09/27 01:00:59;;;;;;;5.20;3.53;;;;;;;13.95;100.00;93710.91;5091385;28;20202;-76
2022/09/27 01:03:34;;;;;;;5.53;3.83;;;;;;;14.00;100.00;93720.69;5090760;28;20277;-76
2022/09/27 01:06:01;;;;;;;7.30;4.47;;;;;;;14.03;100.00;93726.19;5090712;28;20209;-76
2022/09/27 01:08:29;;;;;;;6.93;4.18;;;;;;;13.81;100.00;93692.47;5091308;28;20206;-76
2022/09/27 01:11:12;;;;;;;7.00;4.07;;;;;;;13.89;100.00;93696.06;5090469;28;20502;-76
2022/09/27 01:13:49;;;;;;;6.97;3.85;;;;;;;13.89;100.00;93709.69;5091091;28;20198;-77
2022/09/27 01:16:23;;;;;;;5.47;4.10;;;;;;;13.89;100.00;93715.13;5090250;28;20243;-76
2022/09/27 01:19:02;;;;;;;5.75;2.78;;;;;;;14.01;100.00;93712.16;5090222;28;20209;-75
2022/09/27 01:21:46;;;;;;;3.47;2.45;;;;;;;13.97;100.00;93695.00;5090612;28;20206;-74
2022/09/27 01:25:03;;;;;;;6.78;4.45;;;;;;;13.77;100.00;93672.59;5090982;28;20226;-74
2022/09/27 01:28:23;;;;;;;6.25;3.72;;;;;;;13.81;100.00;93702.56;5090415;28;20456;-76
2022/09/27 01:30:56;;;;;;;5.95;4.10;;;;;;;13.86;100.00;93696.81;5046926;28;20199;-76
2022/09/27 01:33:32;;;;;;;7.47;4.45;;;;;;;13.73;100.00;93687.31;5046863;28;20253;-75
2022/09/27 01:36:12;;;;;;;9.98;4.32;;;;;;;13.72;100.00;93705.59;5070120;28;20202;-76
2022/09/27 01:38:49;;;;;;;5.85;3.88;;;;;;;13.70;100.00;93685.34;5090134;28;20218;-75
2022/09/27 01:41:28;;;;;;;6.85;4.45;;;;;;;13.77;100.00;93707.22;5089779;28;20657;-75
2022/09/27 01:43:59;;;;;;;9.02;4.63;;;;;;;13.70;100.00;93701.66;5090762;28;20283;-74
2022/09/27 01:46:33;;;;;;;6.13;4.30;;;;;;;13.67;100.00;93686.06;5089891;28;20607;-74
2022/09/27 01:49:04;;;;;;;6.70;4.40;;;;;;;13.70;100.00;93712.53;5101557;27;20233;-75
2022/09/27 01:51:36;;;;;;;7.00;3.85;;;;;;;13.76;100.00;93705.63;5131051;27;20261;-75
2022/09/27 01:54:05;;;;;;;7.70;4.50;;;;;;;13.73;100.00;93700.94;5130443;27;20604;-76
2022/09/27 01:56:35;;;;;;;5.80;4.07;;;;;;;13.80;100.00;93703.75;5131094;27;20264;-75
2022/09/27 01:59:09;;;;;;;8.18;4.30;;;;;;;13.78;100.00;93706.06;5131093;27;20541;-75
2022/09/27 02:01:40;;;;;;;6.78;4.15;;;;;;;13.76;100.00;93694.75;5131177;27;20204;-75
2022/09/27 02:04:11;;;;;;;7.10;4.38;;;;;;;13.76;100.00;93684.66;5130829;27;20660;-75
2022/09/27 02:06:41;;;;;;;5.38;3.67;;;;;;;13.69;100.00;93667.44;5130507;27;20690;-75
2022/09/27 02:09:12;;;;;;;7.45;4.82;;;;;;;13.73;100.00;93690.03;5130090;27;20205;-75
2022/09/27 02:11:45;;;;;;;6.15;4.07;;;;;;;13.76;100.00;93683.88;5130691;27;20201;-75
2022/09/27 02:14:17;;;;;;;7.78;4.60;;;;;;;13.57;100.00;93687.50;5130499;27;20201;-75
2022/09/27 02:16:50;;;;;;;6.38;4.35;;;;;;;13.47;100.00;93645.41;5130957;27;20204;-75
2022/09/27 02:19:27;;;;;;;5.95;4.10;;;;;;;13.52;100.00;93642.38;5130151;27;20610;-75
2022/09/27 02:22:01;;;;;;;10.63;4.18;;;;;;;13.61;100.00;93665.78;5130694;27;20241;-75
2022/09/27 02:24:36;;;;;;;10.55;5.47;;;;;;;13.70;100.00;93669.00;5130355;27;20244;-75
2022/09/27 02:27:11;;;;;;;7.03;4.40;;;;;;;13.73;100.00;93652.72;5130284;27;20197;-75
2022/09/27 02:29:45;;;;;;;8.15;4.70;;;;;;;13.51;100.00;93608.16;5130288;27;20212;-74
2022/09/27 02:32:14;;;;;;;6.95;4.63;;;;;;;13.60;100.00;93605.16;5129321;27;20668;-74
2022/09/27 02:34:43;;;;;;;8.40;5.35;;;;;;;13.57;100.00;93605.09;5128851;27;20201;-74
2022/09/27 02:37:11;;;;;;;9.35;5.22;;;;;;;13.68;100.00;93600.56;5130559;27;20228;-74
2022/09/27 02:39:38;;;;;;;11.65;5.75;;;;;;;13.67;100.00;93596.25;5129850;27;20262;-74
2022/09/27 02:42:06;;;;;;;12.25;5.22;;;;;;;13.73;100.00;93602.94;5129902;27;20254;-74
2022/09/27 02:44:33;;;;;;;9.25;5.80;;;;;;;13.78;100.00;93616.22;5129744;27;20710;-75
2022/09/27 02:47:16;;;;;;;11.10;5.30;;;;;;;13.87;100.00;93627.59;5130455;27;20212;-75
2022/09/27 02:49:54;;;;;;;6.45;4.47;;;;;;;13.77;100.00;93609.22;5129612;27;20248;-75
2022/09/27 02:52:33;;;;;;;7.20;5.00;;;;;;;13.73;100.00;93619.28;5128966;28;20196;-75
2022/09/27 02:55:10;;;;;;;9.68;5.20;;;;;;;13.64;100.00;93610.63;5129423;28;20200;-75
2022/09/27 02:57:46;;;;;;;8.73;4.68;;;;;;;13.61;100.00;93627.69;5130178;28;20273;-75
2022/09/27 03:00:17;;;;;;;7.00;4.28;;;;;;;13.65;100.00;93634.75;5129707;28;20667;-75
2022/09/27 03:02:53;;;;;;;8.15;4.85;;;;;;;13.63;100.00;93625.38;5129594;28;20312;-75
2022/09/27 03:05:25;;;;;;;7.15;4.47;;;;;;;13.61;100.00;93605.94;5130406;28;20196;-75
2022/09/27 03:07:52;;;;;;;6.95;3.88;;;;;;;13.57;100.00;93605.09;5130094;28;21001;-76
2022/09/27 03:10:21;;;;;;;6.90;4.00;;;;;;;13.69;100.00;93589.28;5129437;28;20324;-74
2022/09/27 03:12:49;;;;;;;5.85;3.80;;;;;;;13.58;100.00;93574.00;5129993;28;20208;-75
2022/09/27 03:15:16;;;;;;;7.38;3.90;;;;;;;13.52;100.00;93577.09;5129265;28;20201;-75
2022/09/27 03:17:43;;;;;;;6.82;4.00;;;;;;;13.53;100.00;93567.75;5129662;28;20224;-75
2022/09/27 03:20:10;;;;;;;7.90;4.65;;;;;;;13.53;100.00;93551.41;5130074;28;20261;-75
2022/09/27 03:22:39;;;;;;;6.60;3.75;;;;;;;13.58;100.00;93565.84;5129782;28;20342;-76
2022/09/27 03:25:07;;;;;;;6.32;4.80;;;;;;;13.60;100.00;93571.69;5131067;27;20258;-74
2022/09/27 03:27:35;;;;;;;8.15;4.47;;;;;;;13.67;100.00;93563.59;5133333;27;20663;-77
2022/09/27 03:30:01;;;;;;;7.43;4.90;;;;;;;13.79;100.00;93563.38;5133787;27;20201;-76
2022/09/27 03:32:30;;;;;;;8.00;4.88;;;;;;;13.73;100.00;93564.84;5133961;27;20200;-77
2022/09/27 03:34:56;;;;;;;6.97;4.60;;;;;;;13.78;100.00;93559.06;5133498;27;20315;-76
2022/09/27 03:37:25;;;;;;;12.57;5.30;;;;;;;13.66;100.00;93568.28;5133822;27;20297;-76
2022/09/27 03:39:53;;;;;;;7.32;5.07;;;;;;;13.63;100.00;93554.63;5133477;27;20570;-76
2022/09/27 03:42:20;;;;;;;9.13;5.97;;;;;;;13.58;100.00;93561.19;5133207;27;20193;-76
2022/09/27 03:44:47;;;;;;;8.98;5.45;;;;;;;13.59;100.00;93553.81;5133098;27;20232;-76
2022/09/27 03:47:14;;;;;;;7.70;5.53;;;;;;;13.66;100.00;93540.28;5133856;27;20227;-76
2022/09/27 03:49:40;;;;;;;5.72;3.75;;;;;;;13.59;100.00;93532.81;5133091;27;20237;-76
2022/09/27 03:52:07;;;;;;;7.63;4.18;;;;;;;13.54;100.00;93541.31;5133086;27;20210;-76
2022/09/27 03:54:34;;;;;;;7.88;5.18;;;;;;;13.58;100.00;93568.56;5133232;27;20620;-74
2022/09/27 03:57:03;;;;;;;7.47;4.93;;;;;;;13.71;100.00;93575.31;5133099;27;20205;-74
2022/09/27 03:59:30;;;;;;;6.88;4.63;;;;;;;13.65;100.00;93568.66;5132434;27;20232;-75
2022/09/27 04:01:57;;;;;;;9.43;6.18;;;;;;;13.74;100.00;93566.41;5132957;27;20209;-77
2022/09/27 04:04:24;;;;;;;12.15;5.13;;;;;;;13.76;100.00;93575.78;5132638;27;20724;-75
2022/09/27 04:06:51;;;;;;;9.88;6.50;;;;;;;13.80;100.00;93567.66;5133636;27;20201;-76
2022/09/27 04:09:17;;;;;;;9.13;6.07;;;;;;;13.84;100.00;93555.63;5133309;27;20205;-75
2022/09/27 04:11:44;;;;;;;10.48;6.43;;;;;;;13.81;100.00;93555.59;5133024;27;20667;-77
2022/09/27 04:14:12;;;;;;;9.80;6.57;;;;;;;13.86;100.00;93557.97;5133125;27;20209;-76
2022/09/27 04:16:40;;;;;;;9.95;6.22;;;;;;;13.78;100.00;93556.34;5130172;27;20197;-78
2022/09/27 04:19:07;;;;;;;9.57;5.78;;;;;;;13.77;100.00;93560.22;5133003;27;20356;-78
2022/09/27 04:21:35;;;;;;;11.73;6.30;;;;;;;13.80;100.00;93559.50;5133698;27;20280;-77
2022/09/27 04:24:04;;;;;;;12.38;6.07;;;;;;;13.80;100.00;93545.88;5133106;27;20221;-77
2022/09/27 04:26:30;;;;;;;14.80;7.60;;;;;;;13.86;100.00;93557.97;5132237;27;20193;-78
2022/09/27 04:28:57;;;;;;;12.68;7.32;;;;;;;13.91;100.00;93560.38;5131691;27;20644;-77
2022/09/27 04:31:26;;;;;;;9.15;6.20;;;;;;;13.92;100.00;93553.78;5131465;27;20253;-77
2022/09/27 04:33:53;;;;;;;12.10;7.18;;;;;;;13.94;100.00;93535.09;5132507;27;20248;-77
2022/09/27 04:36:27;;;;;;;11.60;6.82;;;;;;;13.93;100.00;93549.91;5131116;27;20230;-77
2022/09/27 04:38:54;;;;;;;13.68;7.75;;;;;;;14.00;100.00;93552.66;5132449;27;20796;-78
2022/09/27 04:41:23;;;;;;;8.85;5.90;;;;;;;13.91;100.00;93549.47;5131925;27;20663;-76
2022/09/27 04:43:50;;;;;;;13.07;7.47;;;;;;;13.91;100.00;93546.75;5132245;27;20703;-76
2022/09/27 04:46:19;;;;;;;16.15;8.07;;;;;;;13.93;100.00;93549.91;5131481;27;20193;-76
2022/09/27 04:48:47;;;;;;;14.52;7.95;;;;;;;13.92;100.00;93561.16;5132008;27;20217;-77
2022/09/27 04:51:16;;;;;;;12.45;7.38;;;;;;;14.00;100.00;93574.44;5132825;27;20656;-77
2022/09/27 04:53:43;;;;;;;11.98;7.32;;;;;;;14.00;100.00;93585.34;5132466;27;20238;-76
2022/09/27 04:56:10;;;;;;;15.57;7.80;;;;;;;14.02;100.00;93572.16;5132531;27;20613;-78
2022/09/27 04:58:37;;;;;;;15.18;8.23;;;;;;;13.99;100.00;93572.88;5132124;27;20270;-78
2022/09/27 05:01:04;;;;;;;15.85;7.85;;;;;;;13.99;100.00;93575.59;5131751;27;20197;-75
2022/09/27 05:03:32;;;;;;;11.18;5.90;;;;;;;13.96;100.00;93567.41;5132546;27;20246;-78
2022/09/27 05:06:00;;;;;;;7.40;4.57;;;;;;;13.92;100.00;93561.94;5131425;27;20619;-76
2022/09/27 05:08:27;;;;;;;12.13;7.35;;;;;;;13.99;100.00;93563.94;5124855;27;20200;-76
2022/09/27 05:10:54;;;;;;;17.85;7.47;;;;;;;13.96;100.00;93557.28;5131079;27;20201;-76
2022/09/27 05:13:21;;;;;;;12.95;7.82;;;;;;;13.99;100.00;93551.09;5131603;27;20205;-78
2022/09/27 05:15:48;;;;;;;14.07;7.10;;;;;;;14.15;100.00;93554.38;5130220;27;20209;-78
2022/09/27 05:18:15;;;;;;;11.90;6.85;;;;;;;14.28;100.00;93535.00;5130789;27;20221;-73
2022/09/27 05:20:42;;;;;;;11.77;7.30;;;;;;;14.18;100.00;93537.28;5129695;27;20211;-76
2022/09/27 05:23:11;;;;;;;13.15;7.32;;;;;;;14.19;100.00;93554.41;5130529;27;20224;-73
2022/09/27 05:25:37;;;;;;;12.43;7.55;;;;;;;14.22;100.00;93540.78;5130635;27;20205;-76
2022/09/27 05:28:05;;;;;;;14.38;7.70;;;;;;;14.21;100.00;93531.06;5131065;27;20663;-74
2022/09/27 05:30:31;;;;;;;13.65;7.72;;;;;;;14.18;100.00;93531.84;5130858;27;20201;-75
2022/09/27 05:32:58;;;;;;;12.35;7.93;;;;;;;14.37;100.00;93543.63;5131173;27;20213;-77
2022/09/27 05:35:26;;;;;;;14.98;7.90;;;;;;;14.27;100.00;93522.53;5129924;27;20205;-75
2022/09/27 05:37:54;;;;;;;12.18;7.15;;;;;;;14.16;100.00;93517.81;5130736;27;20656;-77
2022/09/27 05:40:23;;;;;;;15.02;8.00;;;;;;;14.24;100.00;93527.59;5130788;27;20258;-75
2022/09/27 05:42:50;;;;;;;15.27;8.30;;;;;;;14.35;100.00;93548.69;5130605;27;20229;-80
2022/09/27 05:45:17;;;;;;;11.70;7.40;;;;;;;14.34;100.00;93533.50;5130113;27;20601;-78
2022/09/27 05:47:52;;;;;;;13.32;7.65;;;;;;;14.30;100.00;93557.22;5126338;27;20261;-79
2022/09/27 05:50:18;;;;;;;16.52;8.38;;;;;;;14.32;100.00;93546.72;5130087;27;20235;-78
2022/09/27 05:52:45;;;;;;;12.40;6.93;;;;;;;14.52;100.00;93535.22;5130376;27;20246;-76
2022/09/27 05:55:12;;;;;;;11.82;7.00;;;;;;;14.49;100.00;93532.47;5130575;27;20212;-77
2022/09/27 05:57:40;;;;;;;15.40;8.57;;;;;;;14.50;100.00;93536.75;5129834;27;20290;-76
2022/09/27 06:00:08;;;;;;;13.68;7.88;;;;;;;14.56;100.00;93541.47;5127068;27;20228;-77
2022/09/27 06:02:35;;;;;;;16.50;9.27;;;;;;;14.38;100.00;93524.19;5130202;27;20209;-74
2022/09/27 06:05:02;;;;;;;19.65;10.05;;;;;;;14.38;100.00;93534.28;5130647;27;20201;-75
2022/09/27 06:07:30;;;;;;;14.27;8.30;;;;;;;14.42;100.00;93546.03;5129874;27;20208;-74
2022/09/27 06:09:57;;;;;;;16.75;8.63;;;;;;;14.44;100.00;93551.91;5129876;27;20213;-75
2022/09/27 06:12:24;;;;;;;15.95;9.00;;;;;;;14.59;100.00;93559.03;5129823;27;20209;-76
2022/09/27 06:14:52;;;;;;;13.75;8.55;;;;;;;14.55;100.00;93534.47;5129692;27;20201;-75
2022/09/27 06:17:19;;;;;;;12.20;7.72;;;;;;;14.43;100.00;93523.09;5129688;27;20261;-75
2022/09/27 06:19:46;;;;;;;12.55;8.23;;;;;;;14.59;100.00;93534.50;5129653;27;20239;-75
2022/09/27 06:22:13;;;;;;;17.70;8.85;;;;;;;14.67;100.00;93530.63;5129854;27;20285;-75
2022/09/27 06:24:40;;;;;;;22.48;14.68;;;;;;;14.75;100.00;93526.81;5130332;27;20205;-75
2022/09/27 06:27:07;;;;;;;19.42;10.88;;;;;;;14.88;100.00;93530.78;5129477;27;20547;-75
2022/09/27 06:29:34;;;;;;;16.80;8.82;;;;;;;14.98;100.00;93533.94;5129430;27;20205;-75
2022/09/27 06:32:02;;;;;;;15.45;8.52;;;;;;;14.82;100.00;93515.16;5129592;27;20205;-74
2022/09/27 06:34:29;;;;;;;15.40;9.07;;;;;;;14.66;100.00;93523.63;5130143;27;20276;-74
2022/09/27 06:36:56;;;;;;;15.77;9.43;;;;;;;14.75;100.00;93532.25;5129071;27;20231;-75
2022/09/27 06:39:23;;;;;;;15.85;9.65;;;;;;;14.82;100.00;93548.66;5129340;27;20239;-75
2022/09/27 06:41:56;;;;;;;15.88;9.70;;;;;;;14.71;100.00;93526.00;5128588;27;20273;-75
2022/09/27 06:44:24;;;;;;;15.68;8.90;;;;;;;14.79;100.00;93554.84;5128887;27;20620;-75
2022/09/27 06:46:51;;;;;;;17.35;10.63;;;;;;;14.96;100.00;93552.63;5128857;27;20207;-76
2022/09/27 06:49:21;;;;;;;14.45;7.90;;;;;;;14.93;100.00;93530.41;5128907;27;20252;-76
2022/09/27 06:51:47;;;;;;;24.13;13.35;;;;;;;14.92;100.00;93537.00;5129458;27;20284;-76
2022/09/27 06:54:14;;;;;;;18.58;10.15;;;;;;;15.02;100.00;93541.00;5130056;28;20212;-75
2022/09/27 06:56:41;;;;;;;19.42;10.60;;;;;;;15.15;100.00;93531.31;5129902;28;20224;-75
2022/09/27 07:01:52;;;;;;;18.13;10.05;;;;;;;15.26;100.00;93545.00;5121487;27;20609;-75
2022/09/27 07:04:20;;;;;;;15.32;8.82;;;;;;;15.16;100.00;93530.16;5133572;27;20664;-76
2022/09/27 07:06:47;;;;;;;15.18;9.75;;;;;;;14.91;100.00;93535.44;5133995;27;20312;-76
2022/09/27 07:09:14;;;;;;;13.43;8.70;;;;;;;15.02;100.00;93551.09;5133697;27;20201;-76
2022/09/27 07:11:42;;;;;;;12.95;8.40;;;;;;;15.16;100.00;93543.78;5133493;27;20292;-76
2022/09/27 07:14:09;;;;;;;18.77;11.20;;;;;;;15.20;100.00;93547.28;5133574;27;20205;-76
2022/09/27 07:16:36;;;;;;;13.93;8.55;;;;;;;15.15;100.00;93538.72;5133160;27;20285;-76
2022/09/27 07:19:04;;;;;;;16.65;8.98;;;;;;;15.16;100.00;93534.81;5133324;27;20232;-77
2022/09/27 07:21:32;;;;;;;13.43;8.05;;;;;;;15.15;100.00;93534.03;5133062;27;20909;-77
2022/09/27 07:23:59;;;;;;;19.70;9.45;;;;;;;15.15;100.00;93538.72;5133478;27;20373;-76
2022/09/27 07:26:26;;;;;;;17.63;8.98;;;;;;;14.85;100.00;93504.28;5132764;27;20766;-76
2022/09/27 07:28:53;;;;;;;15.82;9.07;;;;;;;14.93;100.00;93544.03;5133374;27;20200;-77
2022/09/27 07:31:20;;;;;;;21.05;14.20;;;;;;;15.01;100.00;93538.63;5132850;27;20549;-77
2022/09/27 07:33:47;;;;;;;23.88;13.50;;;;;;;14.90;100.00;93542.06;5133221;27;20197;-77
2022/09/27 07:36:14;;;;;;;12.18;7.05;;;;;;;14.68;100.00;93537.66;5134026;27;20593;-79
2022/09/27 07:38:42;;;;;;;13.40;8.07;;;;;;;14.64;100.00;93547.75;5133375;27;20221;-77
2022/09/27 07:41:12;;;;;;;7.78;4.72;;;;;;;14.68;100.00;93564.91;5133236;27;20274;-77
2022/09/27 07:43:40;;;;;;;15.48;8.50;;;;;;;14.82;100.00;93567.75;5132387;27;20256;-77
2022/09/27 07:46:06;;;;;;;14.40;8.93;;;;;;;14.85;100.00;93580.63;5132599;27;20197;-77
2022/09/27 07:48:33;;;;;;;16.55;7.50;;;;;;;14.95;100.00;93590.00;5132447;27;20201;-77
2022/09/27 07:51:00;;;;;;;13.60;7.55;;;;;;;14.81;100.00;93579.03;5131476;27;20289;-78
2022/09/27 07:53:27;;;;;;;13.18;8.25;;;;;;;14.71;100.00;93577.78;5132211;27;20201;-77
2022/09/27 07:55:56;;;;;;;13.70;8.27;;;;;;;14.67;100.00;93565.28;5132513;27;20265;-77
2022/09/27 07:58:23;;;;;;;19.80;11.52;;;;;;;14.67;100.00;93573.47;5131674;27;20667;-78
2022/09/27 08:00:49;;;;;;;15.20;8.75;;;;;;;14.83;100.00;93577.47;5131514;27;20212;-77
2022/09/27 08:03:17;;;;;;;20.90;9.07;;;;;;;14.75;100.00;93558.75;5132179;27;20273;-77
2022/09/27 08:05:46;;;;;;;21.90;10.52;;;;;;;14.66;100.00;93550.88;5131847;27;20281;-76
2022/09/27 08:08:12;;;;;;;13.85;7.70;;;;;;;14.74;100.00;93525.25;5125038;27;20667;-75
2022/09/27 08:10:43;;;;;;;13.65;8.43;;;;;;;14.76;100.00;93517.44;5129809;27;20217;-77
2022/09/27 08:13:12;;;;;;;14.50;7.90;;;;;;;14.80;100.00;93512.81;5132597;27;20199;-77
2022/09/27 08:15:38;;;;;;;14.80;8.80;;;;;;;14.83;100.00;93517.50;5132713;27;20200;-75
2022/09/27 08:18:08;;;;;;;16.52;8.77;;;;;;;15.08;100.00;93525.03;5132553;27;20201;-75
2022/09/27 08:20:35;;;;;;;28.55;12.35;;;;;;;15.26;100.00;93545.00;5132996;27;20404;-75
2022/09/27 08:23:03;;;;;;;19.23;9.60;;;;;;;15.23;100.00;93562.91;5132459;27;20216;-75
2022/09/27 08:25:29;;;;;;;15.38;9.60;;;;;;;15.14;100.00;93558.97;5132354;27;20208;-77
2022/09/27 08:27:57;;;;;;;19.35;10.07;;;;;;;15.16;100.00;93553.91;5133062;27;20277;-76
2022/09/27 08:30:26;;;;;;;18.27;10.65;;;;;;;15.27;100.00;93557.47;5132304;27;20836;-77
2022/09/27 08:32:56;;;;;;;16.88;10.30;;;;;;;15.29;100.00;93539.56;5132100;27;20545;-79
2022/09/27 08:35:23;;;;;;;14.77;9.38;;;;;;;15.21;100.00;93516.13;5128190;27;20197;-76
2022/09/27 08:37:54;;;;;;;17.88;10.82;;;;;;;15.53;100.00;93518.19;5125686;27;20193;-74
2022/09/27 08:40:22;;;;;;;19.25;12.27;;;;;;;15.60;100.00;93521.72;5129545;27;20209;-77
2022/09/27 08:43:00;;;;;;;25.45;11.13;;;;;;;15.81;100.00;93503.84;5125620;27;20311;-74
2022/09/27 08:45:32;;;;;;;20.13;12.50;;;;;;;15.92;100.00;93515.56;5130711;27;20726;-76
2022/09/27 08:48:02;;;;;;;19.70;11.35;;;;;;;16.12;100.00;93503.09;5132268;27;20208;-76
2022/09/27 08:50:33;;;;;;;19.52;11.35;;;;;;;16.44;100.00;93514.00;5131687;27;20237;-76
2022/09/27 08:53:04;;;;;;;19.88;12.82;;;;;;;16.51;100.00;93527.69;5131201;27;20192;-76
2022/09/27 08:55:36;;;;;;;18.90;11.10;;;;;;;16.59;100.00;93504.63;5132466;27;20197;-76
2022/09/27 08:58:12;;;;;;;18.73;11.40;;;;;;;16.50;100.00;93517.16;5131932;27;20303;-75
2022/09/27 09:00:41;;;;;;;21.38;11.43;;;;;;;16.52;100.00;93514.81;5131006;27;20268;-78
2022/09/27 09:03:17;;;;;;;17.52;10.63;;;;;;;16.95;100.00;93488.94;5130446;27;20283;-76
2022/09/27 09:05:51;;;;;;;21.25;15.77;;;;;;;17.20;100.00;93488.09;5130946;27;20204;-78
2022/09/27 09:08:33;;;;;;;21.95;11.85;;;;;;;17.75;100.00;93480.81;5131585;27;20200;-78
2022/09/27 09:14:36;;;;;;;16.50;9.75;;;;;;;17.87;94.88;93473.28;5107789;28;20285;-79
2022/09/27 09:17:13;;;;;;;14.02;8.43;;;;;;;17.13;100.00;93471.69;5108312;28;20197;-78
2022/09/27 09:19:54;;;;;;;19.73;14.95;;;;;;;17.07;100.00;93484.22;5124016;27;20232;-78
2022/09/27 09:22:37;;;;;;;20.48;15.10;;;;;;;17.37;100.00;93487.22;5131164;27;20225;-78
2022/09/27 09:25:21;;;;;;;9.02;5.03;;;;;;;16.79;100.00;93491.34;5130979;27;20615;-75
2022/09/27 09:28:01;;;;;;;10.32;6.22;;;;;;;16.67;100.00;93497.25;5131310;27;20197;-76
2022/09/27 09:30:35;;;;;;;17.42;10.00;;;;;;;17.17;100.00;93497.09;5131089;27;20201;-78
2022/09/27 09:33:15;;;;;;;17.83;9.68;;;;;;;17.46;100.00;93490.31;5130875;27;20245;-77
2022/09/27 09:35:49;;;;;;;11.35;8.02;;;;;;;17.52;100.00;93477.75;5130346;27;20227;-78
2022/09/27 09:38:20;;;;;;;14.50;9.38;;;;;;;17.51;100.00;93476.19;5130607;27;20629;-76
2022/09/27 09:40:52;;;;;;;16.35;11.55;;;;;;;17.65;97.52;93484.38;5130231;27;20265;-77
2022/09/27 09:43:25;;;;;;;20.33;11.80;;;;;;;17.92;98.49;93481.06;5130620;27;20217;-77
2022/09/27 09:45:57;;;;;;;16.50;12.10;;;;;;;17.69;98.17;93479.66;5130925;27;20189;-75
2022/09/27 09:48:32;;;;;;;13.88;6.60;;;;;;;17.56;97.06;93494.94;5130223;27;20218;-74
2022/09/27 09:51:02;;;;;;;10.05;6.85;;;;;;;17.48;98.48;93487.19;5130455;27;20559;-76
2022/09/27 09:53:39;;;;;;;10.55;6.70;;;;;;;17.14;100.00;93478.72;5130136;27;20257;-75
2022/09/27 09:56:10;;;;;;;12.02;7.68;;;;;;;17.25;100.00;93479.44;5129435;27;20645;-75
2022/09/27 09:58:47;;;;;;;13.00;8.13;;;;;;;17.81;100.00;93483.88;5129189;27;20265;-76
2022/09/27 10:01:19;;;;;;;19.05;8.05;;;;;;;18.26;96.97;93473.78;5130225;27;20220;-75
2022/09/27 10:03:48;;;;;;;12.13;6.90;;;;;;;18.10;95.74;93470.75;5130094;27;20204;-76
2022/09/27 10:06:18;;;;;;;13.98;7.63;;;;;;;17.87;97.21;93460.38;5130222;27;20193;-76
2022/09/27 10:08:46;;;;;;;11.82;5.38;;;;;;;17.49;100.00;93462.16;5130091;27;20201;-76
2022/09/27 10:11:20;;;;;;;11.63;7.05;;;;;;;17.43;100.00;93471.94;5129409;27;20261;-74
2022/09/27 10:13:47;;;;;;;11.75;7.03;;;;;;;17.86;100.00;93485.44;5129324;27;20204;-74
2022/09/27 10:16:17;;;;;;;11.73;6.95;;;;;;;17.73;99.68;93472.19;5125141;27;20659;-74
2022/09/27 10:18:45;;;;;;;11.13;7.32;;;;;;;17.91;100.00;93460.31;5127374;27;20261;-74
2022/09/27 10:21:18;;;;;;;11.20;6.60;;;;;;;18.01;98.18;93464.97;5128819;27;20232;-75
2022/09/27 10:24:06;;;;;;;11.18;7.40;;;;;;;18.32;97.46;93463.13;5128879;27;20262;-74
2022/09/27 10:26:33;;;;;;;13.88;10.40;;;;;;;18.52;95.28;93466.09;5128506;27;20291;-74
2022/09/27 10:29:16;;;;;;;13.35;9.60;;;;;;;18.81;93.83;93446.25;5129115;27;20270;-74
2022/09/27 10:31:46;;;;;;;12.95;10.10;;;;;;;19.16;92.96;93453.28;5129814;27;20611;-74
2022/09/27 10:34:20;;;;;;;16.38;12.25;;;;;;;19.41;91.65;93454.94;5115558;27;20557;-74
2022/09/27 10:37:03;;;;;;;13.48;8.82;;;;;;;19.33;89.58;93459.75;5129064;27;20664;-73
2022/09/27 10:39:30;;;;;;;9.95;8.93;;;;;;;19.13;90.42;93456.84;5129390;27;20304;-74
2022/09/27 10:41:57;;;;;;;13.85;9.27;;;;;;;19.37;90.78;93465.22;5128831;27;20225;-73
2022/09/27 10:44:27;;;;;;;13.45;9.50;;;;;;;19.78;90.24;93451.34;5129297;27;20215;-74
2022/09/27 10:46:56;;;;;;;12.20;9.40;;;;;;;19.63;87.27;93419.75;5130468;27;20205;-73
2022/09/27 10:49:28;;;;;;;12.38;8.85;;;;;;;19.72;88.40;93415.28;5130561;27;20228;-73
2022/09/27 10:51:59;;;;;;;11.63;9.10;;;;;;;20.28;84.84;93417.56;5131663;27;20278;-73
2022/09/27 10:54:29;;;;;;;11.73;9.13;;;;;;;20.56;84.65;93412.38;5129124;27;20246;-73
2022/09/27 10:56:59;;;;;;;11.98;8.73;;;;;;;20.91;80.84;93410.13;5127945;27;20286;-72
2022/09/27 10:59:30;;;;;;;11.60;8.18;;;;;;;20.78;80.52;93406.47;5127782;28;20240;-71
2022/09/27 11:01:58;;;;;;;13.50;8.68;;;;;;;20.84;83.23;93396.53;5128846;28;20276;-72
2022/09/27 11:04:30;;;;;;;10.70;7.93;;;;;;;20.52;81.33;93400.66;5128506;27;20340;-73
2022/09/27 11:07:12;;;;;;;7.75;6.47;;;;;;;20.41;79.98;93399.28;5127968;28;20232;-72
2022/09/27 11:09:48;;;;;;;11.38;8.00;;;;;;;20.38;82.09;93403.66;5128353;28;20205;-73
2022/09/27 11:12:19;;;;;;;10.57;8.23;;;;;;;20.20;82.77;93400.41;5128412;28;20211;-72
2022/09/27 11:14:55;;;;;;;11.00;8.45;;;;;;;20.08;84.75;93387.25;5128557;28;20575;-72
2022/09/27 11:17:31;;;;;;;10.82;8.30;;;;;;;20.30;83.17;93393.94;5128897;28;20193;-72
2022/09/27 11:20:15;;;;;;;11.43;8.27;;;;;;;20.63;80.51;93394.19;5128006;28;20253;-72
2022/09/27 11:23:28;;;;;;;9.07;6.88;;;;;;;21.22;79.44;93389.47;5128212;28;20289;-72
2022/09/27 11:26:10;;;;;;;11.93;7.63;;;;;;;21.29;77.15;93396.84;5128045;28;20221;-72
2022/09/27 11:28:50;;;;;;;9.45;7.60;;;;;;;21.40;77.73;93377.31;5122761;28;20273;-72
2022/09/27 11:31:27;;;;;;;9.52;7.88;;;;;;;21.64;78.14;93360.22;5128759;28;20245;-72
2022/09/27 11:34:26;;;;;;;10.30;6.78;;;;;;;21.53;76.35;93367.19;5128808;27;20205;-73
2022/09/27 11:36:58;;;;;;;9.45;7.50;;;;;;;;;;5128333;28;20201;-73
2022/09/27 11:39:39;;;;;;;8.70;6.43;;;;;;;20.87;78.23;93351.66;5127879;28;20602;-73
2022/09/27 11:42:25;;;;;;;8.90;7.05;;;;;;;20.98;78.68;93345.91;5128734;27;20297;-72
2022/09/27 11:45:01;;;;;;;9.23;6.75;;;;;;;20.83;79.60;93348.19;5128220;27;20729;-72